Pagrindinis puslapis
METAR-TAF:

METAR-TAF

Oro uostai :

Belmar-Farmingdale, Naujasis Džersis, Jungtinės Amerikos Valstijos

platuma: 40-11N, ilguma: 074-08W, Aukštis: 48 m

Dabartinis oras

Ataskaita buvo paskelbta 54 minutes, ne 04:56 UTC
Vėjas 12 kt iš Vakarų su gūsio iki 22 kt
Temperatūra -1°C
Drėgmė 54%
Slėgis 1012 hPa
Matomumas: 16.1 km
Giedras dangus

METAR: KBLM 280456Z AUTO 26012G22KT 10SM CLR M01/M09 A2987 RMK AO2 SLP118 T10111094 400781011 FZRANO

Laikas: 00:50 (05:50 UTC)


TAF: trūkstamas

Orai ataskaitas ir orų prognozės (METAR, TAF).

turimą stotys yra geltonos ir raudonos taškus žemėlapyje.

Perkelti pele per norėdami pamatyti stoties vardą.

Tada spustelėkite, norėdami matyti oro stebėjimo ir prognozės.

Norėdami pakeisti žemėlapį: spustelėkite ant žalios mygtukų su juodo kryžiaus žemyn,; žalią mygtuką su brūkšneliu, jei norite nutolinti; arba žalių rodyklių gretimoms žemėlapius.


METAR-TAF: